Terminal Aerodrome Forecast
Issued by NWS

Home | Current Version | Previous Version | Text Only | Print | Product List | Glossary On
Versions: 1 2 3 4 5 6 7 8 9 10 11 12 13 14 15 16 17 18 19 20 21 22 23 24 25 26 27 28
985
FTUS43 KDLH 261139
TAFHYR
TAF
KHYR 261139Z 2612/2712 24008G15KT P6SM -SHRA BKN024 OVC040
     FM261400 28013G23KT P6SM VCSH SCT015 OVC029
     FM262000 28010G18KT P6SM VCSH OVC035=

USA.gov is the U.S. government's official web portal to all federal, state and local government web resources and services.